createdAt,value
2019-02-05T00:01:24.341Z,62.70
2019-02-05T00:03:52.477Z,63.00
2019-02-05T00:06:21.028Z,63.00
2019-02-05T00:08:49.203Z,63.00
2019-02-05T00:11:17.371Z,63.00
2019-02-05T00:13:45.347Z,63.10
2019-02-05T00:16:13.450Z,63.10
2019-02-05T00:18:41.486Z,62.60
2019-02-05T00:21:09.496Z,63.00
2019-02-05T00:23:37.498Z,63.00
2019-02-05T00:26:06.550Z,63.20
2019-02-05T00:28:34.769Z,62.40
2019-02-05T00:31:02.817Z,61.60
2019-02-05T00:33:30.915Z,62.10
2019-02-05T00:35:58.883Z,62.60
2019-02-05T00:38:27.549Z,62.30
2019-02-05T00:40:55.573Z,62.30
2019-02-05T00:43:23.584Z,63.20
2019-02-05T00:45:51.601Z,63.00
2019-02-05T00:48:19.759Z,62.30
2019-02-05T00:50:47.773Z,62.60
2019-02-05T00:53:16.039Z,63.10
2019-02-05T00:55:44.558Z,63.30
2019-02-05T00:58:12.522Z,63.00
2019-02-05T01:00:40.520Z,63.60
2019-02-05T01:03:08.485Z,63.00
2019-02-05T01:05:36.497Z,63.30
2019-02-05T01:08:04.524Z,62.70
2019-02-05T01:10:32.552Z,63.60
2019-02-05T01:13:00.506Z,62.90
2019-02-05T01:15:28.562Z,63.90
2019-02-05T01:17:56.580Z,63.40
2019-02-05T01:20:24.677Z,64.00
2019-02-05T01:22:52.698Z,64.30
2019-02-05T01:25:20.869Z,63.80
2019-02-05T01:27:49.203Z,64.20
2019-02-05T01:30:20.353Z,64.10
2019-02-05T01:32:48.463Z,64.20
2019-02-05T01:35:16.462Z,64.60
2019-02-05T01:37:44.491Z,65.00
2019-02-05T01:40:14.889Z,65.40
2019-02-05T01:42:43.261Z,64.70
2019-02-05T01:45:14.876Z,65.10
2019-02-05T01:47:43.160Z,65.40
2019-02-05T01:50:13.313Z,65.20
2019-02-05T01:52:41.357Z,65.20
2019-02-05T01:55:10.069Z,66.20
2019-02-05T01:57:38.381Z,66.10
2019-02-05T02:00:10.147Z,66.50
2019-02-05T02:02:38.130Z,65.70
2019-02-05T02:05:06.206Z,65.80
2019-02-05T02:07:34.229Z,65.30
2019-02-05T02:10:02.192Z,65.30
2019-02-05T02:12:30.419Z,65.10
2019-02-05T02:14:59.405Z,66.40
2019-02-05T02:17:27.422Z,65.50
2019-02-05T02:19:55.496Z,66.00
2019-02-05T02:22:23.482Z,66.10
2019-02-05T02:24:51.933Z,65.90
2019-02-05T02:27:20.910Z,66.10
2019-02-05T02:29:49.350Z,66.10
2019-02-05T02:32:17.360Z,66.00
2019-02-05T02:34:45.358Z,66.30
2019-02-05T02:37:13.601Z,66.60
2019-02-05T02:39:41.853Z,67.20
2019-02-05T02:42:10.027Z,65.80
2019-02-05T02:44:38.090Z,66.10
2019-02-05T02:47:06.562Z,66.40
2019-02-05T02:49:34.789Z,67.40
2019-02-05T02:52:03.168Z,67.10
2019-02-05T02:54:31.310Z,66.70
2019-02-05T02:57:04.954Z,66.50
2019-02-05T02:59:29.146Z,67.30
2019-02-05T03:01:57.520Z,67.70
2019-02-05T03:04:25.579Z,67.40
2019-02-05T03:06:54.412Z,67.40
2019-02-05T03:09:23.802Z,67.60
2019-02-05T03:11:52.168Z,68.20
2019-02-05T03:14:20.168Z,68.10
2019-02-05T03:16:48.137Z,68.20
2019-02-05T03:19:16.460Z,68.40
2019-02-05T03:21:44.761Z,68.60
2019-02-05T03:24:12.731Z,68.80
2019-02-05T03:26:40.713Z,69.20
2019-02-05T03:29:09.060Z,69.40
2019-02-05T03:31:37.117Z,69.60
2019-02-05T03:34:05.177Z,69.60
2019-02-05T03:36:33.134Z,70.20
2019-02-05T03:39:01.145Z,70.50
2019-02-05T03:41:30.931Z,70.20
2019-02-05T03:43:58.937Z,69.80
2019-02-05T03:46:28.187Z,69.70
2019-02-05T03:48:56.414Z,70.10
2019-02-05T03:52:13.539Z,70.10
2019-02-05T03:55:30.733Z,71.00
2019-02-05T03:58:28.879Z,71.50
2019-02-05T04:02:25.096Z,73.00
2019-02-05T04:05:34.846Z,75.70
2019-02-05T04:08:28.011Z,74.80
2019-02-05T04:12:03.478Z,71.40
2019-02-05T04:15:23.578Z,72.20
2019-02-05T04:18:34.941Z,72.70
2019-02-05T04:22:04.170Z,75.50
2019-02-05T04:25:36.349Z,73.00
2019-02-05T04:28:39.122Z,72.80
2019-02-05T04:31:59.414Z,71.10
2019-02-05T04:35:31.440Z,70.40
2019-02-05T04:38:35.067Z,70.70
2019-02-05T04:41:30.687Z,71.50
2019-02-05T04:44:24.484Z,72.70
2019-02-05T04:47:54.121Z,73.00
2019-02-05T04:51:01.867Z,73.40
2019-02-05T04:54:03.049Z,72.80
2019-02-05T04:57:06.228Z,73.50
2019-02-05T05:00:27.933Z,72.80
2019-02-05T05:04:21.443Z,72.10
2019-02-05T05:07:30.490Z,73.80
2019-02-05T05:10:01.616Z,75.30
2019-02-05T05:12:30.844Z,75.20
2019-02-05T05:14:59.561Z,76.10
2019-02-05T05:17:27.649Z,76.70
2019-02-05T05:19:55.731Z,78.20
2019-02-05T05:22:23.970Z,78.00
2019-02-05T05:24:51.921Z,76.90
2019-02-05T05:27:21.060Z,77.50
2019-02-05T05:29:49.082Z,80.20
2019-02-05T05:32:17.138Z,79.10
2019-02-05T05:34:45.190Z,77.90
2019-02-05T05:37:11.655Z,77.40
2019-02-05T05:39:39.612Z,77.90
2019-02-05T05:42:07.571Z,78.40
2019-02-05T05:44:35.839Z,77.60
2019-02-05T05:47:04.286Z,78.70
2019-02-05T05:49:32.757Z,78.40
2019-02-05T05:52:00.980Z,78.70
2019-02-05T05:54:29.047Z,79.30
2019-02-05T05:56:57.063Z,79.40
2019-02-05T05:59:25.166Z,79.20
2019-02-05T06:01:53.233Z,79.80
2019-02-05T06:04:21.669Z,79.50
2019-02-05T06:06:49.945Z,78.50
2019-02-05T06:09:17.880Z,79.40
2019-02-05T06:11:45.884Z,78.60
2019-02-05T06:14:13.889Z,78.10
2019-02-05T06:16:42.088Z,78.50
2019-02-05T06:19:10.098Z,79.00
2019-02-05T06:21:38.352Z,78.40
2019-02-05T06:24:06.649Z,79.50
2019-02-05T06:26:34.660Z,80.30
2019-02-05T06:29:02.863Z,80.60
2019-02-05T06:31:30.898Z,78.80
2019-02-05T06:33:58.916Z,79.30
2019-02-05T06:36:26.913Z,78.30
2019-02-05T06:38:54.975Z,79.50
2019-02-05T06:41:23.290Z,79.00
2019-02-05T06:43:51.322Z,79.70
2019-02-05T06:46:19.293Z,79.00
2019-02-05T06:48:47.319Z,78.90
2019-02-05T06:51:15.336Z,80.90
2019-02-05T06:53:43.637Z,80.10
2019-02-05T06:56:11.624Z,80.60
2019-02-05T06:58:46.508Z,81.00
2019-02-05T07:01:09.728Z,81.50
2019-02-05T07:03:37.681Z,79.20
2019-02-05T07:06:05.789Z,77.50
2019-02-05T07:08:33.771Z,76.90
2019-02-05T07:11:01.726Z,76.70
2019-02-05T07:13:29.871Z,76.90
2019-02-05T07:15:58.165Z,77.50
2019-02-05T07:18:26.251Z,76.60
2019-02-05T07:20:54.228Z,76.90
2019-02-05T07:23:22.217Z,76.90
2019-02-05T07:25:50.393Z,77.00
2019-02-05T07:28:24.867Z,76.40
2019-02-05T07:30:53.276Z,76.80
2019-02-05T07:33:21.672Z,77.40
2019-02-05T07:35:49.742Z,77.60
2019-02-05T07:38:17.819Z,77.40
2019-02-05T07:40:45.881Z,78.00
2019-02-05T07:43:14.024Z,76.70
2019-02-05T07:45:41.983Z,76.00
2019-02-05T07:48:10.070Z,78.10
2019-02-05T07:50:38.129Z,75.10
2019-02-05T07:53:06.448Z,74.00
2019-02-05T07:55:34.454Z,74.90
2019-02-05T07:58:02.501Z,76.00
2019-02-05T08:00:30.708Z,75.80
2019-02-05T08:02:59.475Z,75.80
2019-02-05T08:05:30.124Z,76.10
2019-02-05T08:07:58.478Z,76.80
2019-02-05T08:10:26.932Z,72.60
2019-02-05T08:12:54.887Z,73.20
2019-02-05T08:15:25.689Z,72.50
2019-02-05T08:17:53.648Z,71.90
2019-02-05T08:20:22.295Z,73.10
2019-02-05T08:22:50.504Z,72.50
2019-02-05T08:25:19.081Z,72.00
2019-02-05T08:27:47.093Z,73.40
2019-02-05T08:30:28.097Z,70.40
2019-02-05T08:32:57.351Z,70.30
2019-02-05T08:35:25.626Z,73.80
2019-02-05T08:37:53.652Z,70.50
2019-02-05T08:40:22.646Z,69.40
2019-02-05T08:42:50.789Z,71.40
2019-02-05T08:45:21.456Z,68.30
2019-02-05T08:47:49.559Z,68.40
2019-02-05T08:50:23.366Z,67.30
2019-02-05T08:52:52.381Z,68.40
2019-02-05T08:55:20.480Z,66.80
2019-02-05T08:57:49.652Z,66.80
2019-02-05T09:00:21.498Z,67.40
2019-02-05T09:02:49.801Z,67.30
2019-02-05T09:05:18.175Z,66.40
2019-02-05T09:07:46.457Z,67.20
2019-02-05T09:10:19.542Z,67.60
2019-02-05T09:12:49.552Z,66.10
2019-02-05T09:15:28.889Z,65.50
2019-02-05T09:17:47.875Z,65.10
2019-02-05T09:20:16.631Z,62.10
2019-02-05T09:22:45.016Z,63.80
2019-02-05T09:25:13.191Z,63.60
2019-02-05T09:27:41.209Z,62.00
2019-02-05T09:30:13.831Z,62.10
2019-02-05T09:32:41.840Z,61.50
2019-02-05T09:35:10.248Z,60.50
2019-02-05T09:37:38.303Z,60.20
2019-02-05T09:40:08.939Z,58.90
2019-02-05T09:42:37.313Z,60.20
2019-02-05T09:45:06.715Z,59.60
2019-02-05T09:47:34.712Z,59.60
2019-02-05T09:50:03.216Z,59.60
2019-02-05T09:52:31.585Z,59.60
2019-02-05T09:54:59.976Z,59.00
2019-02-05T09:57:28.251Z,59.00
2019-02-05T09:59:56.246Z,59.20
2019-02-05T10:02:24.213Z,58.20
2019-02-05T10:04:52.461Z,57.70
2019-02-05T10:07:20.452Z,57.70
2019-02-05T10:09:48.763Z,57.60
2019-02-05T10:12:16.786Z,57.80
2019-02-05T10:14:45.014Z,58.30
2019-02-05T10:17:12.998Z,57.90
2019-02-05T10:19:41.097Z,56.90
2019-02-05T10:22:09.173Z,57.80
2019-02-05T10:24:37.464Z,56.00
2019-02-05T10:27:05.991Z,56.80
2019-02-05T10:29:34.563Z,56.40
2019-02-05T10:32:02.646Z,56.50
2019-02-05T10:34:34.161Z,56.60
2019-02-05T10:37:00.835Z,56.80
2019-02-05T10:39:28.845Z,55.80
2019-02-05T10:41:56.852Z,55.70
2019-02-05T10:44:24.879Z,55.70
2019-02-05T10:46:53.349Z,55.00
2019-02-05T10:49:21.375Z,54.90
2019-02-05T10:51:49.597Z,55.20
2019-02-05T10:54:17.998Z,55.30
2019-02-05T10:56:47.384Z,54.10
2019-02-05T10:59:15.735Z,53.60
2019-02-05T11:01:43.678Z,53.60
2019-02-05T11:04:12.130Z,53.30
2019-02-05T11:06:40.197Z,54.10
2019-02-05T11:09:09.999Z,53.10
2019-02-05T11:11:38.085Z,53.80
2019-02-05T11:14:06.395Z,53.70
2019-02-05T11:16:34.854Z,53.30
2019-02-05T11:19:02.854Z,52.80
2019-02-05T11:21:30.869Z,53.40
2019-02-05T11:24:00.800Z,52.10
2019-02-05T11:26:28.808Z,51.40
2019-02-05T11:28:56.792Z,50.70
2019-02-05T11:31:24.944Z,50.30
2019-02-05T11:33:53.117Z,50.00
2019-02-05T11:36:21.690Z,48.70
2019-02-05T11:38:49.816Z,47.70
2019-02-05T11:41:18.124Z,48.80
2019-02-05T11:43:46.215Z,48.80
2019-02-05T11:46:14.445Z,48.40
2019-02-05T11:48:42.476Z,48.10
2019-02-05T11:51:10.518Z,48.50
2019-02-05T11:53:38.753Z,46.50
2019-02-05T11:56:06.965Z,47.40
2019-02-05T11:58:35.194Z,45.60
2019-02-05T12:01:10.690Z,45.10
2019-02-05T12:03:38.623Z,45.10
2019-02-05T12:06:06.882Z,45.00
2019-02-05T12:08:34.864Z,44.50
2019-02-05T12:11:02.861Z,43.90
2019-02-05T12:13:30.844Z,44.30
2019-02-05T12:15:59.096Z,43.40
2019-02-05T12:18:27.224Z,42.30
2019-02-05T12:20:55.247Z,42.60
2019-02-05T12:23:23.545Z,43.20
2019-02-05T12:25:51.555Z,42.00
2019-02-05T12:28:19.650Z,41.90
2019-02-05T12:30:47.809Z,42.50
2019-02-05T12:33:15.754Z,43.40
2019-02-05T12:35:44.260Z,41.60
2019-02-05T12:38:12.554Z,42.00
2019-02-05T12:40:40.561Z,42.50
2019-02-05T12:43:08.518Z,41.50
2019-02-05T12:45:37.508Z,41.20
2019-02-05T12:48:06.004Z,42.00
2019-02-05T12:50:35.247Z,41.50
2019-02-05T12:53:03.535Z,42.80
2019-02-05T12:55:31.815Z,40.70
2019-02-05T12:58:00.067Z,41.00
2019-02-05T13:00:40.044Z,40.00
2019-02-05T13:03:10.288Z,40.30
2019-02-05T13:05:38.399Z,39.50
2019-02-05T13:08:06.471Z,40.40
2019-02-05T13:10:37.691Z,40.30
2019-02-05T13:13:06.986Z,40.70
2019-02-05T13:15:35.025Z,39.80
2019-02-05T13:18:03.029Z,39.10
2019-02-05T13:20:31.185Z,39.80
2019-02-05T13:23:02.091Z,40.20
2019-02-05T13:25:30.420Z,39.60
2019-02-05T13:27:58.450Z,38.80
2019-02-05T13:30:29.011Z,38.50
2019-02-05T13:32:56.943Z,38.60
2019-02-05T13:35:24.998Z,38.70
2019-02-05T13:37:53.700Z,38.00
2019-02-05T13:40:23.510Z,36.70
2019-02-05T13:42:52.429Z,33.50
2019-02-05T13:45:23.503Z,32.80
2019-02-05T13:47:51.535Z,29.00
2019-02-05T13:50:32.373Z,27.70
2019-02-05T13:52:55.085Z,26.60
2019-02-05T13:55:29.020Z,25.40
2019-02-05T13:57:56.988Z,24.80
2019-02-05T14:00:37.623Z,24.60
2019-02-05T14:03:07.178Z,24.70
2019-02-05T14:05:35.253Z,24.20
2019-02-05T14:08:03.273Z,21.50
2019-02-05T14:10:31.638Z,21.90
2019-02-05T14:12:59.656Z,21.90
2019-02-05T14:15:31.205Z,22.20
2019-02-05T14:17:59.353Z,22.40
2019-02-05T14:20:27.363Z,21.60
2019-02-05T14:22:55.434Z,21.80
2019-02-05T14:25:23.514Z,21.70
2019-02-05T14:27:51.511Z,21.50
2019-02-05T14:30:44.620Z,23.40
2019-02-05T14:33:12.640Z,20.50
2019-02-05T14:35:40.934Z,22.00
2019-02-05T14:38:09.412Z,21.50
2019-02-05T14:40:37.464Z,20.20
2019-02-05T14:43:06.411Z,21.20
2019-02-05T14:45:34.500Z,21.90
2019-02-05T14:48:02.891Z,21.90
2019-02-05T14:50:31.719Z,22.10
2019-02-05T14:52:59.667Z,22.30
2019-02-05T14:55:28.048Z,22.50
2019-02-05T14:57:56.485Z,22.30
2019-02-05T15:00:27.911Z,23.70
2019-02-05T15:02:57.567Z,24.10
2019-02-05T15:05:25.721Z,23.90
2019-02-05T15:07:54.056Z,23.60
2019-02-05T15:10:22.848Z,23.80
2019-02-05T15:12:51.149Z,23.70
2019-02-05T15:15:19.329Z,23.20
2019-02-05T15:17:47.780Z,22.80
2019-02-05T15:20:25.945Z,23.00
2019-02-05T15:22:53.927Z,22.60
2019-02-05T15:25:22.034Z,23.00
2019-02-05T15:27:50.071Z,24.90
2019-02-05T15:30:24.974Z,23.80
2019-02-05T15:33:12.617Z,23.60
2019-02-05T15:35:45.417Z,25.60
2019-02-05T15:38:13.487Z,24.60
2019-02-05T15:40:41.530Z,25.00
2019-02-05T15:43:09.499Z,25.30
2019-02-05T15:45:37.557Z,26.10
2019-02-05T15:48:05.646Z,26.10
2019-02-05T15:50:33.650Z,28.10
2019-02-05T15:53:01.753Z,28.80
2019-02-05T15:55:30.044Z,29.70
2019-02-05T15:57:58.338Z,30.60
2019-02-05T16:00:26.452Z,30.20
2019-02-05T16:02:54.535Z,30.00
2019-02-05T16:05:22.655Z,30.50
2019-02-05T16:07:50.939Z,32.30
2019-02-05T16:10:19.012Z,33.60
2019-02-05T16:12:47.083Z,35.70
2019-02-05T16:15:15.280Z,35.30
2019-02-05T16:20:11.477Z,36.80
2019-02-05T16:22:39.562Z,36.20
2019-02-05T16:25:09.996Z,35.80
2019-02-05T16:27:37.996Z,37.20
2019-02-05T16:30:12.930Z,38.50
2019-02-05T16:32:41.093Z,38.20
2019-02-05T16:35:09.218Z,37.80
2019-02-05T16:37:37.267Z,38.40
2019-02-05T16:40:10.887Z,40.10
2019-02-05T16:42:38.908Z,40.30
2019-02-05T16:45:10.297Z,41.40
2019-02-05T16:47:38.394Z,41.70
2019-02-05T16:50:12.006Z,40.40
2019-02-05T16:52:40.063Z,40.90
2019-02-05T16:55:08.108Z,41.60
2019-02-05T16:57:36.201Z,41.80
2019-02-05T17:00:19.244Z,42.20
2019-02-05T17:02:47.303Z,43.70
2019-02-05T17:05:15.444Z,44.40
2019-02-05T17:07:43.765Z,45.20
2019-02-05T17:10:13.538Z,45.60
2019-02-05T17:12:41.977Z,46.40
2019-02-05T17:15:11.640Z,46.00
2019-02-05T17:17:39.743Z,47.60
2019-02-05T17:20:11.907Z,46.80
2019-02-05T17:22:40.239Z,47.50
2019-02-05T17:25:10.874Z,47.80
2019-02-05T17:27:39.383Z,47.20
2019-02-05T17:30:11.606Z,48.50
2019-02-05T17:32:40.525Z,48.20
2019-02-05T17:35:08.901Z,49.10
2019-02-05T17:37:36.906Z,49.80
2019-02-05T17:40:06.596Z,49.90
2019-02-05T17:42:34.855Z,49.10
2019-02-05T17:45:03.413Z,50.10
2019-02-05T17:47:31.526Z,49.30
2019-02-05T17:49:59.870Z,50.20
2019-02-05T17:52:27.926Z,50.20
2019-02-05T17:54:56.075Z,50.40
2019-02-05T17:57:24.182Z,51.60
2019-02-05T17:59:52.866Z,51.60
2019-02-05T18:02:21.103Z,52.20
2019-02-05T18:04:49.055Z,51.90
2019-02-05T18:07:17.460Z,50.90
2019-02-05T18:09:45.622Z,51.70
2019-02-05T18:12:13.746Z,51.70
2019-02-05T18:14:41.946Z,52.10
2019-02-05T18:17:10.292Z,52.80
2019-02-05T18:19:38.670Z,53.60
2019-02-05T18:22:08.051Z,52.90
2019-02-05T18:24:36.278Z,52.60
2019-02-05T18:27:05.744Z,53.70
2019-02-05T18:29:33.779Z,52.90
2019-02-05T18:32:02.223Z,53.30
2019-02-05T18:34:30.281Z,54.00
2019-02-05T18:36:58.425Z,54.40
2019-02-05T18:39:26.679Z,54.50
2019-02-05T18:41:55.055Z,54.20
2019-02-05T18:44:23.064Z,54.30
2019-02-05T18:46:51.271Z,54.20
2019-02-05T18:49:19.411Z,54.90
2019-02-05T18:51:47.530Z,55.70
2019-02-05T18:54:15.818Z,56.20
2019-02-05T18:56:43.789Z,55.80
2019-02-05T18:59:12.013Z,56.70
2019-02-05T19:01:40.175Z,56.30
2019-02-05T19:04:08.362Z,56.80
2019-02-05T19:06:36.585Z,55.80
2019-02-05T19:09:12.717Z,56.70
2019-02-05T19:11:40.855Z,56.90
2019-02-05T19:14:08.858Z,57.70
2019-02-05T19:16:36.878Z,57.50
2019-02-05T19:19:14.579Z,55.90
2019-02-05T19:21:36.926Z,55.40
2019-02-05T19:24:27.646Z,56.40
2019-02-05T19:26:55.747Z,56.80
2019-02-05T19:29:24.467Z,56.70
2019-02-05T19:31:53.062Z,57.60
2019-02-05T19:34:21.278Z,58.40
2019-02-05T19:36:49.982Z,58.50
2019-02-05T19:39:18.545Z,59.30
2019-02-05T19:41:48.074Z,58.90
2019-02-05T19:44:16.091Z,59.00
2019-02-05T19:47:02.248Z,59.50
2019-02-05T19:49:45.624Z,60.00
2019-02-05T19:52:13.904Z,60.20
2019-02-05T19:54:41.969Z,60.50
2019-02-05T19:57:10.097Z,60.80
2019-02-05T19:59:39.994Z,62.00
2019-02-05T20:02:09.438Z,60.60
2019-02-05T20:04:37.528Z,62.20
2019-02-05T20:07:06.699Z,62.20
2019-02-05T20:09:35.103Z,61.30
2019-02-05T20:12:03.693Z,61.90
2019-02-05T20:14:31.816Z,63.30
2019-02-05T20:17:00.237Z,64.90
2019-02-05T20:19:28.360Z,62.20
2019-02-05T20:21:56.407Z,63.60
2019-02-05T20:24:24.667Z,63.50
2019-02-05T20:26:53.891Z,64.10
2019-02-05T20:29:22.514Z,63.40
2019-02-05T20:31:50.611Z,65.10
2019-02-05T20:34:19.080Z,63.30
2019-02-05T20:36:47.666Z,63.50
2019-02-05T20:39:17.960Z,63.00
2019-02-05T20:41:46.020Z,63.30
2019-02-05T20:44:14.347Z,62.90
2019-02-05T20:46:42.441Z,63.00
2019-02-05T20:49:10.481Z,63.30
2019-02-05T20:51:38.485Z,63.50
2019-02-05T20:54:06.980Z,63.10
2019-02-05T20:56:35.280Z,62.10
2019-02-05T20:59:04.043Z,61.70
2019-02-05T21:01:32.252Z,61.60
2019-02-05T21:04:01.746Z,61.90
2019-02-05T21:06:30.300Z,63.30
2019-02-05T21:08:58.568Z,63.10
2019-02-05T21:11:27.044Z,62.00
2019-02-05T21:13:55.153Z,63.60
2019-02-05T21:16:23.241Z,64.10
2019-02-05T21:18:51.245Z,62.40
2019-02-05T21:21:19.606Z,62.90
2019-02-05T21:23:47.796Z,63.10
2019-02-05T21:26:16.002Z,64.10
2019-02-05T21:28:45.267Z,64.50
2019-02-05T21:31:14.809Z,64.70
2019-02-05T21:33:42.934Z,64.70
2019-02-05T21:36:11.229Z,64.30
2019-02-05T21:38:39.456Z,64.00
2019-02-05T21:41:07.581Z,64.80
2019-02-05T21:43:35.753Z,65.50
2019-02-05T21:46:04.184Z,64.20
2019-02-05T21:48:34.036Z,64.80
2019-02-05T21:51:02.358Z,65.90
2019-02-05T21:53:30.290Z,67.00
2019-02-05T21:55:58.395Z,66.60
2019-02-05T21:58:26.503Z,65.40
2019-02-05T22:00:54.501Z,66.00
2019-02-05T22:03:23.295Z,66.90
2019-02-05T22:05:54.062Z,66.60
2019-02-05T22:08:22.555Z,65.60
2019-02-05T22:10:50.718Z,66.20
2019-02-05T22:13:18.887Z,66.30
2019-02-05T22:15:46.998Z,66.20
2019-02-05T22:18:15.070Z,67.80
2019-02-05T22:20:44.473Z,67.90
2019-02-05T22:23:12.977Z,68.20
2019-02-05T22:25:40.996Z,69.10
2019-02-05T22:28:09.168Z,71.90
2019-02-05T22:30:37.404Z,71.10
2019-02-05T22:33:05.834Z,69.10
2019-02-05T22:35:34.591Z,69.60
2019-02-05T22:38:02.651Z,69.60
2019-02-05T22:40:30.690Z,71.00
2019-02-05T22:42:58.701Z,70.80
2019-02-05T22:45:28.825Z,71.30
2019-02-05T22:47:57.264Z,70.90
2019-02-05T22:50:27.768Z,69.40
2019-02-05T22:52:56.227Z,69.90
2019-02-05T22:55:24.537Z,70.10
2019-02-05T22:57:52.526Z,70.70
2019-02-05T23:00:51.042Z,71.60
2019-02-05T23:03:25.600Z,72.30
2019-02-05T23:06:44.637Z,74.00
2019-02-05T23:09:18.546Z,75.30
2019-02-05T23:12:27.589Z,73.20
2019-02-05T23:15:13.959Z,72.00
2019-02-05T23:17:42.133Z,73.60
2019-02-05T23:20:14.795Z,72.50
2019-02-05T23:22:43.013Z,71.30
2019-02-05T23:25:11.330Z,69.70
2019-02-05T23:27:39.496Z,69.80
2019-02-05T23:30:13.859Z,70.20
2019-02-05T23:32:41.983Z,70.40
2019-02-05T23:35:10.119Z,71.70
2019-02-05T23:37:38.263Z,71.70
2019-02-05T23:40:06.960Z,72.20
2019-02-05T23:42:35.219Z,72.10
2019-02-05T23:45:04.885Z,71.30
2019-02-05T23:47:33.086Z,72.10
2019-02-05T23:50:01.071Z,72.80
2019-02-05T23:52:29.149Z,72.00
2019-02-05T23:54:57.073Z,73.30
2019-02-05T23:57:25.198Z,71.90
2019-02-05T23:59:53.157Z,70.80
